Time;durP1;ratioP1;P1;durP2;ratioP2;P2;SDS_P1;SDS_P2;PMS_P1;PMS_P2;Temp;Humidity;BMP_temperature;BMP_pressure;BME280_temperature;BME280_humidity;BME280_pressure;Samples;Min_cycle;Max_cycle;Signal;HPM_P1;HPM_P2
2023/12/22 00:01:28;;;;;;;1.70;0.73;;;4.60;99.90;;;;;;5011591;28;20706;-65
2023/12/22 00:03:56;;;;;;;3.27;0.90;;;4.60;99.90;;;;;;5015079;28;20372;-64
2023/12/22 00:06:23;;;;;;;5.07;0.73;;;4.60;99.90;;;;;;4968988;28;20218;-65
2023/12/22 00:08:51;;;;;;;9.33;1.43;;;4.50;99.90;;;;;;5020727;28;20229;-64
2023/12/22 00:11:18;;;;;;;2.83;1.37;;;4.50;99.90;;;;;;5006082;28;20202;-65
2023/12/22 00:13:45;;;;;;;6.70;1.37;;;4.50;99.90;;;;;;5017141;28;21162;-65
2023/12/22 00:16:12;;;;;;;7.63;1.30;;;4.40;99.90;;;;;;5006707;28;20255;-65
2023/12/22 00:18:39;;;;;;;6.63;1.80;;;4.50;99.90;;;;;;5006867;28;20208;-65
2023/12/22 00:21:05;;;;;;;7.47;1.43;;;4.50;99.90;;;;;;4988867;28;20198;-65
2023/12/22 00:23:35;;;;;;;8.20;1.63;;;4.50;99.90;;;;;;5008405;28;20226;-65
2023/12/22 00:26:04;;;;;;;11.73;1.63;;;4.60;99.90;;;;;;5014552;28;20320;-65
2023/12/22 00:28:31;;;;;;;6.07;1.20;;;4.60;99.90;;;;;;4995184;28;20224;-65
2023/12/22 00:30:58;;;;;;;4.07;1.17;;;4.70;99.90;;;;;;5014495;28;20762;-65
2023/12/22 00:33:25;;;;;;;15.53;1.83;;;4.80;99.90;;;;;;5012179;28;20196;-65
2023/12/22 00:35:53;;;;;;;6.33;1.00;;;4.80;99.90;;;;;;5004598;28;20245;-65
2023/12/22 00:38:19;;;;;;;10.67;1.60;;;4.80;99.90;;;;;;4979575;28;20212;-66
2023/12/22 00:40:46;;;;;;;10.17;1.37;;;4.90;99.90;;;;;;5017306;28;20234;-65
2023/12/22 00:43:14;;;;;;;6.20;1.07;;;4.80;99.90;;;;;;5014263;28;20320;-66
2023/12/22 00:45:41;;;;;;;6.63;1.33;;;4.80;99.90;;;;;;5006392;28;20230;-65
2023/12/22 00:48:08;;;;;;;6.13;1.87;;;4.70;99.90;;;;;;5016647;28;20288;-66
2023/12/22 00:50:35;;;;;;;4.83;1.13;;;4.80;99.90;;;;;;5013335;28;20202;-65
2023/12/22 00:53:02;;;;;;;8.90;1.20;;;4.70;99.90;;;;;;4973783;28;20208;-65
2023/12/22 00:55:29;;;;;;;5.03;1.57;;;4.70;99.90;;;;;;5012961;28;20204;-65
2023/12/22 00:57:56;;;;;;;4.57;1.50;;;4.20;99.90;;;;;;5004228;28;20301;-65
2023/12/22 01:00:24;;;;;;;4.10;1.50;;;4.70;99.90;;;;;;5016912;28;20206;-65
2023/12/22 01:02:51;;;;;;;6.50;1.20;;;;;;;;;;5009938;28;20229;-65
2023/12/22 01:05:18;;;;;;;8.57;1.00;;;4.60;99.90;;;;;;5009266;28;20245;-65
2023/12/22 01:07:45;;;;;;;14.53;1.83;;;4.60;99.90;;;;;;5011458;28;20437;-65
2023/12/22 01:10:12;;;;;;;5.20;1.63;;;4.60;99.90;;;;;;4984378;28;20216;-65
2023/12/22 01:12:39;;;;;;;12.87;2.53;;;5.00;99.90;;;;;;5023243;28;20210;-66
2023/12/22 01:15:08;;;;;;;13.93;1.80;;;5.00;99.90;;;;;;5008576;28;20296;-66
2023/12/22 01:17:36;;;;;;;6.07;1.80;;;4.70;99.90;;;;;;5015686;28;20225;-65
2023/12/22 01:20:03;;;;;;;4.13;1.37;;;4.60;99.90;;;;;;5021297;28;20200;-65
2023/12/22 01:22:32;;;;;;;1.80;0.77;;;4.60;99.90;;;;;;5014030;28;20622;-65
2023/12/22 01:24:58;;;;;;;4.23;1.20;;;4.70;99.90;;;;;;4987393;28;20221;-65
2023/12/22 01:27:25;;;;;;;2.80;0.83;;;4.60;99.90;;;;;;5018551;28;20287;-65
2023/12/22 01:29:52;;;;;;;5.80;1.50;;;4.60;99.90;;;;;;4996842;28;20198;-65
2023/12/22 01:32:19;;;;;;;3.13;0.70;;;4.60;99.90;;;;;;5012374;28;20203;-65
2023/12/22 01:34:47;;;;;;;5.13;0.87;;;4.00;99.90;;;;;;5019973;28;20212;-65
2023/12/22 01:37:14;;;;;;;4.57;1.00;;;4.60;99.90;;;;;;5006675;28;20236;-65
2023/12/22 01:39:41;;;;;;;3.73;1.00;;;4.70;99.90;;;;;;5015556;28;20211;-65
2023/12/22 01:42:08;;;;;;;5.87;1.10;;;4.50;99.90;;;;;;4983015;28;20226;-65
2023/12/22 01:44:35;;;;;;;4.03;1.47;;;4.70;99.90;;;;;;5014056;28;20253;-66
2023/12/22 01:47:02;;;;;;;3.40;1.23;;;4.10;99.90;;;;;;5006732;28;23615;-65
2023/12/22 01:49:29;;;;;;;1.53;0.97;;;4.70;99.90;;;;;;5020014;28;20355;-64
2023/12/22 01:51:59;;;;;;;3.70;1.27;;;4.50;99.90;;;;;;5014433;28;20205;-64
2023/12/22 01:54:26;;;;;;;4.63;1.07;;;4.60;99.90;;;;;;5010759;28;20759;-65
2023/12/22 01:56:53;;;;;;;9.73;1.27;;;4.50;99.90;;;;;;4979000;28;20212;-64
2023/12/22 01:59:20;;;;;;;2.93;0.80;;;4.60;99.90;;;;;;5010369;28;20209;-64
2023/12/22 02:01:46;;;;;;;7.47;1.70;;;4.60;99.90;;;;;;5015162;28;20217;-65
2023/12/22 02:04:15;;;;;;;5.03;1.53;;;4.60;99.90;;;;;;5003127;28;20257;-65
2023/12/22 02:06:42;;;;;;;12.17;1.20;;;;;;;;;;5018745;28;20213;-65
2023/12/22 02:09:10;;;;;;;6.23;1.60;;;2.10;99.90;;;;;;4999715;28;20202;-65
2023/12/22 02:11:39;;;;;;;4.43;1.23;;;4.60;99.90;;;;;;5021147;28;20205;-65
2023/12/22 02:14:07;;;;;;;9.03;1.47;;;4.60;99.90;;;;;;4974796;28;20223;-65
2023/12/22 02:16:40;;;;;;;5.53;1.23;;;4.60;99.90;;;;;;5007919;28;20950;-65
2023/12/22 02:19:17;;;;;;;4.03;0.60;;;4.70;99.90;;;;;;5009510;28;20304;-65
2023/12/22 02:22:02;;;;;;;6.43;0.90;;;5.00;99.90;;;;;;5018660;28;20196;-64
2023/12/22 02:24:31;;;;;;;1.13;0.80;;;4.70;99.90;;;;;;5015369;28;20289;-65
2023/12/22 02:27:05;;;;;;;1.27;0.43;;;4.70;99.90;;;;;;4969458;28;21860;-65
2023/12/22 02:29:36;;;;;;;1.97;0.90;;;4.70;99.90;;;;;;5011480;28;20209;-64
2023/12/22 02:32:08;;;;;;;3.57;1.03;;;4.60;99.90;;;;;;5007323;28;20778;-64
2023/12/22 02:34:38;;;;;;;5.00;0.80;;;4.60;99.90;;;;;;4999227;28;20217;-64
2023/12/22 02:37:08;;;;;;;6.73;1.30;;;4.50;99.90;;;;;;5004878;28;20887;-64
2023/12/22 02:39:37;;;;;;;9.60;1.47;;;4.50;99.90;;;;;;5011472;28;20480;-64
2023/12/22 02:42:05;;;;;;;2.20;0.60;;;4.40;99.90;;;;;;4983983;28;20253;-64
2023/12/22 02:44:32;;;;;;;2.60;0.73;;;4.50;99.90;;;;;;4981736;28;20228;-64
2023/12/22 02:46:59;;;;;;;4.83;1.30;;;4.40;99.90;;;;;;5000269;28;20332;-64
2023/12/22 02:49:26;;;;;;;9.27;1.07;;;4.40;99.90;;;;;;5002687;28;20237;-64
2023/12/22 02:51:53;;;;;;;3.53;1.07;;;4.60;99.90;;;;;;5009039;28;20309;-64
2023/12/22 02:54:20;;;;;;;5.83;1.17;;;3.90;99.90;;;;;;5017511;28;20248;-65
2023/12/22 02:56:48;;;;;;;8.33;1.23;;;4.20;99.90;;;;;;5013377;28;20208;-64
2023/12/22 02:59:15;;;;;;;6.07;1.50;;;4.20;99.90;;;;;;4982411;28;20205;-64
2023/12/22 03:01:42;;;;;;;14.00;2.03;;;4.20;99.90;;;;;;5007390;28;20209;-64
2023/12/22 03:04:10;;;;;;;6.57;1.60;;;;;;;;;;5009767;28;20197;-64
2023/12/22 03:06:36;;;;;;;8.90;1.70;;;4.30;99.90;;;;;;5006285;28;20209;-65
2023/12/22 03:09:03;;;;;;;9.63;1.40;;;4.50;99.90;;;;;;5014217;28;20204;-64
2023/12/22 03:11:30;;;;;;;7.77;1.67;;;4.30;99.90;;;;;;5011563;28;20686;-65
2023/12/22 03:13:58;;;;;;;5.07;1.57;;;4.40;99.90;;;;;;4969753;28;20214;-64
2023/12/22 03:16:25;;;;;;;9.33;1.77;;;4.40;99.90;;;;;;5006612;28;20225;-64
2023/12/22 03:18:52;;;;;;;5.10;1.27;;;4.40;99.90;;;;;;5009284;28;20212;-64
2023/12/22 03:21:20;;;;;;;8.50;1.90;;;4.40;99.90;;;;;;5005756;28;20203;-64
2023/12/22 03:23:47;;;;;;;13.47;1.60;;;4.40;99.90;;;;;;5021215;28;20232;-64
2023/12/22 03:26:13;;;;;;;4.67;1.63;;;4.50;99.90;;;;;;5003657;28;20586;-64
2023/12/22 03:28:40;;;;;;;8.30;1.40;;;4.40;99.90;;;;;;4973761;28;20229;-64
2023/12/22 03:31:09;;;;;;;7.97;1.13;;;4.40;99.90;;;;;;5007996;28;20201;-64
2023/12/22 03:33:35;;;;;;;5.83;1.50;;;4.40;99.90;;;;;;5007254;28;20206;-64
2023/12/22 03:36:02;;;;;;;3.67;1.13;;;4.40;99.90;;;;;;5008508;28;20234;-64
2023/12/22 03:38:29;;;;;;;7.47;1.23;;;4.30;99.90;;;;;;5011688;28;20217;-65
2023/12/22 03:40:56;;;;;;;2.97;0.90;;;4.30;99.90;;;;;;5015529;28;20198;-65
2023/12/22 03:43:23;;;;;;;5.20;0.80;;;4.40;99.90;;;;;;4999013;28;21305;-64
2023/12/22 03:45:50;;;;;;;4.70;0.90;;;4.30;99.90;;;;;;4986068;28;20237;-64
2023/12/22 03:48:18;;;;;;;3.97;0.70;;;4.40;99.90;;;;;;4994837;28;20212;-64
2023/12/22 03:50:45;;;;;;;6.77;1.17;;;4.40;99.90;;;;;;5011268;28;20680;-64
2023/12/22 03:53:12;;;;;;;8.83;1.27;;;4.50;99.90;;;;;;5018694;28;20291;-64
2023/12/22 03:55:39;;;;;;;4.93;1.30;;;4.50;99.90;;;;;;5019236;28;20201;-64
2023/12/22 03:58:07;;;;;;;5.40;1.70;;;4.60;99.90;;;;;;5011169;28;20201;-65
2023/12/22 04:00:34;;;;;;;5.40;1.60;;;4.80;99.90;;;;;;4981317;28;20391;-64
2023/12/22 04:03:01;;;;;;;6.17;1.00;;;4.70;99.90;;;;;;5012531;28;20224;-64
2023/12/22 04:05:29;;;;;;;0.60;0.50;;;3.80;99.90;;;;;;5003338;28;20213;-64
2023/12/22 04:07:56;;;;;;;1.57;0.90;;;3.90;99.90;;;;;;5015712;28;21047;-64
2023/12/22 04:10:23;;;;;;;2.63;0.73;;;3.50;99.90;;;;;;5021285;28;20205;-64
2023/12/22 04:12:50;;;;;;;2.47;0.70;;;4.00;99.90;;;;;;5015914;28;20681;-64
2023/12/22 04:15:17;;;;;;;3.17;0.43;;;3.00;99.90;;;;;;4974772;28;20213;-64
2023/12/22 04:17:43;;;;;;;1.07;0.40;;;3.50;99.90;;;;;;5015572;28;20653;-64
2023/12/22 04:20:11;;;;;;;1.47;0.57;;;3.50;99.90;;;;;;5010420;28;20949;-64
2023/12/22 04:22:39;;;;;;;4.00;0.90;;;3.50;99.90;;;;;;5009175;28;20340;-64
2023/12/22 04:25:07;;;;;;;3.63;0.47;;;3.50;99.90;;;;;;5015699;28;20693;-65
2023/12/22 04:27:34;;;;;;;6.73;1.20;;;3.60;99.90;;;;;;5018476;28;20212;-64
2023/12/22 04:30:01;;;;;;;8.23;1.47;;;3.50;99.90;;;;;;4998906;28;20204;-64
2023/12/22 04:32:28;;;;;;;7.30;1.27;;;3.70;99.90;;;;;;4976769;28;20215;-64
2023/12/22 04:34:55;;;;;;;7.07;2.07;;;;;;;;;;5010790;28;20295;-64
2023/12/22 04:37:22;;;;;;;11.50;1.93;;;3.70;99.90;;;;;;5005072;28;20210;-64
2023/12/22 04:39:50;;;;;;;6.10;1.10;;;3.80;99.90;;;;;;5020198;28;20198;-65
2023/12/22 04:42:18;;;;;;;4.87;1.27;;;3.90;99.90;;;;;;5012978;28;20688;-64
2023/12/22 04:44:45;;;;;;;2.87;0.77;;;;;;;;;;5012943;28;20239;-65
2023/12/22 04:47:12;;;;;;;7.27;1.27;;;4.20;99.90;;;;;;4981677;28;20214;-64
2023/12/22 04:49:39;;;;;;;5.47;1.27;;;4.30;99.90;;;;;;5000934;28;20987;-64
2023/12/22 04:52:06;;;;;;;9.73;2.00;;;4.20;99.90;;;;;;4993701;28;20922;-64
2023/12/22 04:54:33;;;;;;;6.37;1.30;;;4.30;99.90;;;;;;5012951;28;20226;-64
2023/12/22 04:57:01;;;;;;;5.03;0.47;;;4.20;99.90;;;;;;5012335;28;20221;-64
2023/12/22 04:59:28;;;;;;;6.47;1.23;;;4.20;99.90;;;;;;5002484;28;20221;-64
2023/12/22 05:01:55;;;;;;;6.00;1.63;;;;;;;;;;4977665;28;20957;-64
2023/12/22 05:04:22;;;;;;;5.40;1.30;;;2.80;99.90;;;;;;5011107;28;20232;-64
2023/12/22 05:06:49;;;;;;;4.93;1.30;;;4.10;99.90;;;;;;5004493;28;20202;-64
2023/12/22 05:09:17;;;;;;;3.23;1.20;;;4.20;99.90;;;;;;5005845;28;20300;-64
2023/12/22 05:11:44;;;;;;;8.40;1.43;;;4.20;99.90;;;;;;5020711;28;20198;-64
2023/12/22 05:14:12;;;;;;;6.33;1.63;;;4.20;99.90;;;;;;5008038;28;20209;-64
2023/12/22 05:16:39;;;;;;;9.47;2.03;;;4.20;99.90;;;;;;5010511;28;20217;-64
2023/12/22 05:19:06;;;;;;;8.27;1.73;;;3.30;99.90;;;;;;4982482;28;20663;-64
2023/12/22 05:21:33;;;;;;;5.60;1.57;;;4.20;99.90;;;;;;5015037;28;20774;-64
2023/12/22 05:23:59;;;;;;;6.20;1.57;;;4.80;99.90;;;;;;5012105;28;20237;-64
2023/12/22 05:26:29;;;;;;;3.97;1.33;;;4.40;99.90;;;;;;5021528;28;20201;-65
2023/12/22 05:28:57;;;;;;;11.13;1.63;;;;;;;;;;5012442;28;20417;-65
2023/12/22 05:31:27;;;;;;;4.87;1.00;;;5.30;99.90;;;;;;5008898;28;20203;-64
2023/12/22 05:33:54;;;;;;;5.73;1.50;;;4.60;99.90;;;;;;4979955;28;21449;-64
2023/12/22 05:36:21;;;;;;;4.03;1.33;;;4.70;99.90;;;;;;5006599;28;20201;-64
2023/12/22 05:38:48;;;;;;;7.40;1.30;;;4.70;99.90;;;;;;5010919;28;20208;-64
2023/12/22 05:41:15;;;;;;;10.47;2.00;;;4.60;99.90;;;;;;5017801;28;20313;-64
2023/12/22 05:43:42;;;;;;;8.00;1.63;;;4.50;99.90;;;;;;5016813;28;20230;-64
2023/12/22 05:46:10;;;;;;;4.67;0.70;;;4.60;99.90;;;;;;4993749;28;20328;-64
2023/12/22 05:48:38;;;;;;;7.83;1.30;;;4.50;99.90;;;;;;5013162;28;20233;-63
2023/12/22 05:51:07;;;;;;;8.90;1.20;;;1.20;99.90;;;;;;4976226;28;20222;-65
2023/12/22 05:53:34;;;;;;;5.07;1.30;;;5.30;99.90;;;;;;5004868;28;20687;-64
2023/12/22 05:56:00;;;;;;;10.07;1.77;;;4.60;99.90;;;;;;5006124;28;20206;-64
2023/12/22 05:58:27;;;;;;;2.40;0.97;;;4.60;99.90;;;;;;5008569;28;20697;-64
2023/12/22 06:00:54;;;;;;;3.13;1.10;;;;;;;;;;5011486;28;20208;-64
2023/12/22 06:03:21;;;;;;;5.33;1.17;;;4.30;99.90;;;;;;5013027;28;20333;-64
2023/12/22 06:05:49;;;;;;;8.00;0.97;;;4.20;99.90;;;;;;4977715;28;20237;-64
2023/12/22 06:08:16;;;;;;;5.27;1.10;;;4.20;99.90;;;;;;5003087;28;20314;-64
2023/12/22 06:10:44;;;;;;;3.80;0.87;;;4.70;99.90;;;;;;5001094;28;20317;-63
2023/12/22 06:13:11;;;;;;;5.03;1.00;;;4.10;99.90;;;;;;5010645;28;20316;-64
2023/12/22 06:15:38;;;;;;;3.37;1.07;;;4.20;99.90;;;;;;4987722;28;20714;-63
2023/12/22 06:18:05;;;;;;;4.30;0.93;;;4.40;99.90;;;;;;5006251;28;20252;-64
2023/12/22 06:20:32;;;;;;;7.00;1.10;;;3.80;99.90;;;;;;4975922;28;20216;-64
2023/12/22 06:23:00;;;;;;;5.80;1.07;;;4.20;99.90;;;;;;5011614;28;20261;-64
2023/12/22 06:25:27;;;;;;;7.43;2.27;;;3.50;99.90;;;;;;4998305;28;23527;-64
2023/12/22 06:27:54;;;;;;;3.20;1.13;;;4.10;99.90;;;;;;5017235;28;20205;-64
2023/12/22 06:30:21;;;;;;;6.30;1.10;;;4.90;99.90;;;;;;4998774;28;20202;-64
2023/12/22 06:32:48;;;;;;;6.03;1.63;;;4.10;99.90;;;;;;5009574;28;20202;-64
2023/12/22 06:35:15;;;;;;;11.20;1.73;;;4.00;99.90;;;;;;4988230;28;20784;-64
2023/12/22 06:37:42;;;;;;;9.30;2.03;;;4.00;99.90;;;;;;5003761;28;20220;-64
2023/12/22 06:40:11;;;;;;;9.47;1.00;;;4.10;99.90;;;;;;5006438;28;21005;-64
2023/12/22 06:42:39;;;;;;;4.27;1.47;;;;;;;;;;5005952;28;20212;-64
2023/12/22 06:45:06;;;;;;;4.90;1.30;;;4.10;99.90;;;;;;5002077;28;20240;-63
2023/12/22 06:47:33;;;;;;;6.13;1.37;;;4.10;99.90;;;;;;5013438;28;20203;-64
2023/12/22 06:50:00;;;;;;;16.23;1.60;;;4.10;99.90;;;;;;4996234;28;21407;-64
2023/12/22 06:52:27;;;;;;;13.30;2.23;;;4.10;99.90;;;;;;4981185;28;20235;-65
2023/12/22 06:54:55;;;;;;;7.23;1.87;;;5.00;99.90;;;;;;4996249;28;20275;-64
2023/12/22 06:57:23;;;;;;;12.13;2.47;;;4.10;99.90;;;;;;4998727;28;20205;-64
2023/12/22 06:59:50;;;;;;;8.80;1.77;;;4.20;99.90;;;;;;5010982;28;20199;-64
2023/12/22 07:02:17;;;;;;;11.40;1.60;;;4.20;99.90;;;;;;4996234;28;20280;-65
2023/12/22 07:05:21;;;;;;;7.57;1.63;;;4.20;99.90;;;;;;5002230;28;20229;-64
2023/12/22 07:07:48;;;;;;;15.07;2.13;;;4.30;99.90;;;;;;4968386;28;20714;-64
2023/12/22 07:10:15;;;;;;;19.40;2.20;;;4.20;99.90;;;;;;4991312;28;20736;-64
2023/12/22 07:12:44;;;;;;;11.07;2.07;;;4.30;99.90;;;;;;5008294;28;20201;-63
2023/12/22 07:15:10;;;;;;;8.70;2.00;;;4.30;99.90;;;;;;5007368;28;20228;-64
2023/12/22 07:17:37;;;;;;;16.57;2.13;;;4.40;99.90;;;;;;4996325;28;20407;-64
2023/12/22 07:20:05;;;;;;;7.83;1.30;;;4.40;99.90;;;;;;5003570;28;20212;-64
2023/12/22 07:22:32;;;;;;;13.57;2.37;;;4.70;99.90;;;;;;4958476;28;21515;-64
2023/12/22 07:24:59;;;;;;;8.33;1.87;;;3.30;99.90;;;;;;4998068;28;20731;-64
2023/12/22 07:27:25;;;;;;;14.13;2.83;;;4.70;99.90;;;;;;4982244;28;20217;-64
2023/12/22 07:29:54;;;;;;;14.07;2.83;;;4.70;99.90;;;;;;4989680;28;20199;-64
2023/12/22 07:32:21;;;;;;;11.07;2.40;;;;;;;;;;5012894;28;20211;-64
2023/12/22 07:34:48;;;;;;;25.27;2.40;;;4.70;99.90;;;;;;5006222;28;20205;-64
2023/12/22 07:37:15;;;;;;;10.90;2.03;;;;;;;;;;4989100;28;20220;-64
2023/12/22 07:39:45;;;;;;;12.20;2.90;;;4.70;99.90;;;;;;4998376;28;20203;-64
2023/12/22 07:42:11;;;;;;;16.27;2.50;;;5.30;99.90;;;;;;5000499;28;20319;-64
2023/12/22 07:44:38;;;;;;;16.03;2.30;;;4.80;99.90;;;;;;5004364;28;20229;-64
2023/12/22 07:47:07;;;;;;;18.00;2.13;;;4.80;99.90;;;;;;5008967;28;20221;-64
2023/12/22 07:49:34;;;;;;;14.77;2.53;;;4.90;99.90;;;;;;4997944;28;20869;-64
2023/12/22 07:52:01;;;;;;;14.87;2.57;;;4.90;99.90;;;;;;5008437;28;20984;-64
2023/12/22 07:54:27;;;;;;;10.30;3.17;;;5.40;99.90;;;;;;4975136;28;20886;-65
2023/12/22 07:56:54;;;;;;;18.40;2.20;;;5.00;99.90;;;;;;5009909;28;22037;-64
2023/12/22 07:59:21;;;;;;;17.30;2.93;;;5.10;99.90;;;;;;5007898;28;20235;-63
2023/12/22 08:01:48;;;;;;;14.20;2.87;;;5.10;99.90;;;;;;5004780;28;20202;-64
2023/12/22 08:04:16;;;;;;;12.17;2.93;;;5.10;99.90;;;;;;5008067;28;20236;-64
2023/12/22 08:06:43;;;;;;;14.73;2.40;;;5.10;99.90;;;;;;4987647;28;20202;-64
2023/12/22 08:09:10;;;;;;;14.77;2.10;;;5.20;99.90;;;;;;4975641;28;20235;-64
2023/12/22 08:11:37;;;;;;;11.00;2.30;;;5.90;99.90;;;;;;5007843;28;20217;-64
2023/12/22 08:14:04;;;;;;;18.73;2.80;;;5.20;99.90;;;;;;4986211;28;20225;-64
2023/12/22 08:16:32;;;;;;;11.00;2.17;;;5.20;99.90;;;;;;4998628;28;20219;-64
2023/12/22 08:18:59;;;;;;;11.63;3.10;;;5.20;99.90;;;;;;5006552;28;20214;-64
2023/12/22 08:21:27;;;;;;;12.37;2.97;;;5.20;99.90;;;;;;4993398;28;20221;-64
2023/12/22 08:23:54;;;;;;;8.90;2.30;;;5.30;99.90;;;;;;4961445;28;22450;-64
2023/12/22 08:26:21;;;;;;;6.23;1.90;;;;;;;;;;5015192;28;20204;-64
2023/12/22 08:28:48;;;;;;;20.27;3.43;;;5.40;99.90;;;;;;4985486;28;20232;-64
2023/12/22 08:31:15;;;;;;;8.40;1.83;;;5.30;99.90;;;;;;5012498;28;20214;-64
2023/12/22 08:33:43;;;;;;;6.27;1.77;;;4.40;99.90;;;;;;5006585;28;20194;-64
2023/12/22 08:36:10;;;;;;;14.40;2.73;;;5.30;99.90;;;;;;5020704;28;20864;-64
2023/12/22 08:38:40;;;;;;;11.13;1.77;;;5.20;99.90;;;;;;4968800;28;20378;-64
2023/12/22 08:41:08;;;;;;;16.37;1.93;;;5.30;99.90;;;;;;5007267;28;20206;-64
2023/12/22 08:43:35;;;;;;;9.60;1.77;;;5.20;99.90;;;;;;4990520;28;20205;-64
2023/12/22 08:46:02;;;;;;;11.63;2.07;;;5.20;99.90;;;;;;5003940;28;20229;-64
2023/12/22 08:48:29;;;;;;;5.03;1.33;;;5.30;99.90;;;;;;5006390;28;20218;-64
2023/12/22 08:50:55;;;;;;;24.70;4.10;;;5.30;99.90;;;;;;5013018;28;20201;-64
2023/12/22 08:53:22;;;;;;;7.07;1.77;;;5.40;99.90;;;;;;5000769;28;20204;-64
2023/12/22 08:55:50;;;;;;;4.13;1.50;;;5.40;99.90;;;;;;4966050;28;20230;-64
2023/12/22 08:58:18;;;;;;;6.87;1.60;;;5.30;99.90;;;;;;5003980;28;20956;-64
2023/12/22 09:00:45;;;;;;;11.57;1.83;;;5.20;99.90;;;;;;4998177;28;20849;-64
2023/12/22 09:03:12;;;;;;;7.63;1.10;;;5.10;99.90;;;;;;5005244;28;20615;-64
2023/12/22 09:05:39;;;;;;;8.07;1.23;;;5.20;99.90;;;;;;5018168;28;20316;-64
2023/12/22 09:08:06;;;;;;;7.30;1.80;;;5.80;99.90;;;;;;5011149;28;20194;-64
2023/12/22 09:10:33;;;;;;;9.47;1.70;;;5.10;99.90;;;;;;4986913;28;20216;-64
2023/12/22 09:13:01;;;;;;;6.97;1.60;;;5.10;99.90;;;;;;5013156;28;20218;-64
2023/12/22 09:15:28;;;;;;;11.20;2.13;;;5.10;99.90;;;;;;5009557;28;20223;-64
2023/12/22 09:17:55;;;;;;;4.90;1.70;;;;;;;;;;5018007;28;20223;-64
2023/12/22 09:20:22;;;;;;;14.17;1.80;;;5.10;99.90;;;;;;4997012;28;20317;-64
2023/12/22 09:22:49;;;;;;;5.33;1.60;;;4.40;99.90;;;;;;5009931;28;20790;-64
2023/12/22 09:25:17;;;;;;;10.57;1.90;;;;;;;;;;4972591;28;20255;-64
2023/12/22 09:27:43;;;;;;;6.23;1.00;;;5.10;99.90;;;;;;5014230;28;20672;-63
2023/12/22 09:30:12;;;;;;;2.47;0.70;;;5.10;99.90;;;;;;5006367;28;20293;-64
2023/12/22 09:32:39;;;;;;;2.50;0.87;;;5.00;99.90;;;;;;5019467;28;20193;-64
2023/12/22 09:35:07;;;;;;;4.63;1.17;;;5.00;99.90;;;;;;5012709;28;20694;-64
2023/12/22 09:37:34;;;;;;;5.67;0.87;;;4.90;99.90;;;;;;5016977;28;20204;-64
2023/12/22 09:40:01;;;;;;;6.37;1.73;;;4.80;99.90;;;;;;5013422;28;20204;-64
2023/12/22 09:42:28;;;;;;;6.00;1.03;;;4.80;99.90;;;;;;4974601;28;20244;-64
2023/12/22 09:44:57;;;;;;;7.10;1.17;;;4.80;99.90;;;;;;5011298;28;20233;-64
2023/12/22 09:47:29;;;;;;;5.20;1.30;;;4.70;99.90;;;;;;5003418;28;20207;-64
2023/12/22 09:49:56;;;;;;;5.57;1.20;;;4.70;99.90;;;;;;4977892;28;20367;-64
2023/12/22 09:52:23;;;;;;;5.10;1.17;;;4.60;99.90;;;;;;5004891;28;20667;-64
2023/12/22 09:54:51;;;;;;;2.93;0.83;;;4.60;99.90;;;;;;5007206;28;20573;-65
2023/12/22 09:57:18;;;;;;;5.97;2.17;;;4.60;99.90;;;;;;4979163;28;20287;-64
2023/12/22 09:59:46;;;;;;;10.53;2.20;;;4.40;99.90;;;;;;5006910;28;20294;-64
2023/12/22 10:02:13;;;;;;;3.97;1.40;;;4.30;99.90;;;;;;5002332;28;20666;-64
2023/12/22 10:04:41;;;;;;;3.97;1.30;;;4.30;99.90;;;;;;5016180;28;20221;-64
2023/12/22 10:07:10;;;;;;;3.17;1.20;;;4.30;99.90;;;;;;4986246;28;20197;-64
2023/12/22 10:09:38;;;;;;;4.77;1.00;;;4.30;99.90;;;;;;5008996;28;20464;-64
2023/12/22 10:12:06;;;;;;;1.20;1.03;;;4.30;99.90;;;;;;4971702;28;20887;-64
2023/12/22 10:14:35;;;;;;;5.20;1.43;;;4.40;99.90;;;;;;5016044;28;20643;-64
2023/12/22 10:17:02;;;;;;;4.63;0.90;;;4.40;99.90;;;;;;4996423;28;20399;-64
2023/12/22 10:19:29;;;;;;;1.90;0.93;;;4.40;99.90;;;;;;5007171;28;20391;-64
2023/12/22 10:21:57;;;;;;;9.47;1.23;;;4.50;99.90;;;;;;5003082;28;20202;-64
2023/12/22 10:24:42;;;;;;;4.63;1.13;;;4.50;99.90;;;;;;5016971;28;20258;-64
2023/12/22 10:27:09;;;;;;;5.83;2.17;;;4.50;99.90;;;;;;4979960;28;21189;-66
2023/12/22 10:29:36;;;;;;;16.57;2.40;;;;;;;;;;5015446;28;20212;-64
2023/12/22 10:32:04;;;;;;;8.40;1.70;;;4.30;99.90;;;;;;5007188;28;20231;-64
2023/12/22 10:34:32;;;;;;;7.40;1.43;;;4.60;99.90;;;;;;5012498;28;20205;-64
2023/12/22 10:37:01;;;;;;;10.60;2.23;;;4.60;99.90;;;;;;5000864;28;20436;-65
2023/12/22 10:39:29;;;;;;;12.50;2.03;;;4.60;99.90;;;;;;5018043;28;20200;-65
2023/12/22 10:41:56;;;;;;;5.87;1.47;;;4.50;99.90;;;;;;5020287;28;20205;-64
2023/12/22 10:44:25;;;;;;;7.13;2.20;;;4.60;99.90;;;;;;4984542;28;20253;-65
2023/12/22 10:46:52;;;;;;;13.43;2.37;;;4.60;99.90;;;;;;5000414;28;20511;-65
2023/12/22 10:49:19;;;;;;;17.40;2.27;;;4.70;99.90;;;;;;5001281;28;20218;-64
2023/12/22 10:51:46;;;;;;;9.87;1.87;;;5.50;99.90;;;;;;4993607;28;20227;-65
2023/12/22 10:54:14;;;;;;;12.10;1.90;;;5.60;99.90;;;;;;5005980;28;20278;-65
2023/12/22 10:56:41;;;;;;;9.43;1.73;;;5.20;99.90;;;;;;4995426;28;20229;-65
2023/12/22 10:59:09;;;;;;;9.53;2.30;;;5.10;99.90;;;;;;4949544;28;20648;-65
2023/12/22 11:01:38;;;;;;;12.37;1.93;;;5.10;99.90;;;;;;4985587;28;20628;-65
2023/12/22 11:04:07;;;;;;;10.03;2.00;;;5.10;99.90;;;;;;5004278;28;20702;-65
2023/12/22 11:06:36;;;;;;;12.97;2.60;;;5.00;99.90;;;;;;5009283;28;20225;-65
2023/12/22 11:09:07;;;;;;;13.93;2.30;;;5.10;99.90;;;;;;5002525;28;20206;-65
2023/12/22 11:11:37;;;;;;;12.13;2.10;;;5.20;99.90;;;;;;4993256;28;20205;-65
2023/12/22 11:14:05;;;;;;;10.27;1.40;;;5.10;99.90;;;;;;5017017;28;20198;-65
2023/12/22 11:16:33;;;;;;;10.17;1.97;;;5.20;99.90;;;;;;4983428;28;20395;-64
2023/12/22 11:19:01;;;;;;;17.53;2.87;;;5.20;99.90;;;;;;5000659;28;20675;-65
2023/12/22 11:21:29;;;;;;;14.30;2.10;;;5.30;99.90;;;;;;5011286;28;20229;-65
2023/12/22 11:23:58;;;;;;;10.93;1.90;;;5.20;99.90;;;;;;4992587;28;20229;-65
2023/12/22 11:26:26;;;;;;;9.47;1.70;;;5.30;99.90;;;;;;4995299;28;20785;-65
2023/12/22 11:28:54;;;;;;;7.07;1.50;;;5.30;99.90;;;;;;5001781;28;20905;-65
2023/12/22 11:31:21;;;;;;;12.07;1.87;;;;;;;;;;4962491;28;20212;-65
2023/12/22 11:33:49;;;;;;;6.67;2.40;;;5.20;99.90;;;;;;4995802;28;20243;-65
2023/12/22 11:36:17;;;;;;;11.97;2.17;;;5.40;99.90;;;;;;5009911;28;20225;-65
2023/12/22 11:38:45;;;;;;;10.43;2.03;;;5.30;99.90;;;;;;5005653;28;20198;-65
2023/12/22 11:41:16;;;;;;;8.13;1.50;;;5.40;99.90;;;;;;4998018;28;20209;-65
2023/12/22 11:43:45;;;;;;;9.63;1.60;;;5.40;99.90;;;;;;4994375;28;20206;-65
2023/12/22 11:46:13;;;;;;;4.27;1.30;;;5.30;99.90;;;;;;4962744;28;20241;-65
2023/12/22 11:48:48;;;;;;;5.07;1.00;;;5.30;99.90;;;;;;4986233;28;20241;-65
2023/12/22 11:51:16;;;;;;;9.40;2.00;;;5.40;99.90;;;;;;5018350;28;20206;-65
2023/12/22 11:53:43;;;;;;;10.50;2.20;;;5.40;99.90;;;;;;5009585;28;20352;-65
2023/12/22 11:56:11;;;;;;;4.57;1.60;;;5.90;99.90;;;;;;5004915;28;20198;-65
2023/12/22 11:58:40;;;;;;;10.90;1.97;;;5.40;99.90;;;;;;4995246;28;20222;-65
2023/12/22 12:01:08;;;;;;;4.93;1.50;;;5.50;99.90;;;;;;4965648;28;20311;-65
2023/12/22 12:03:42;;;;;;;9.50;2.20;;;5.50;99.90;;;;;;4992480;28;20702;-65
2023/12/22 12:06:17;;;;;;;8.47;1.90;;;5.30;99.90;;;;;;4990205;28;20224;-65
2023/12/22 12:08:44;;;;;;;7.37;1.93;;;5.80;99.90;;;;;;4995701;28;20576;-64
2023/12/22 12:11:12;;;;;;;12.87;2.00;;;5.90;99.90;;;;;;4996639;28;20363;-65
2023/12/22 12:13:44;;;;;;;7.07;1.20;;;5.80;99.90;;;;;;5007382;28;20213;-65
2023/12/22 12:16:12;;;;;;;11.43;1.80;;;5.80;99.90;;;;;;5014813;28;21192;-65
2023/12/22 12:18:41;;;;;;;5.80;1.80;;;5.80;99.90;;;;;;4975963;28;20267;-65
2023/12/22 12:21:08;;;;;;;4.00;1.20;;;6.00;99.90;;;;;;5004123;28;20235;-65
2023/12/22 12:23:36;;;;;;;5.87;1.30;;;5.90;99.90;;;;;;5019588;28;20205;-65
2023/12/22 12:26:03;;;;;;;8.30;1.27;;;6.00;99.90;;;;;;5002039;28;20256;-65
2023/12/22 12:28:31;;;;;;;4.43;1.43;;;6.00;99.90;;;;;;5007770;28;21636;-65
2023/12/22 12:30:59;;;;;;;6.63;1.40;;;6.00;99.90;;;;;;5017739;28;20301;-65
2023/12/22 12:33:26;;;;;;;3.77;1.23;;;5.90;99.90;;;;;;4977775;28;20232;-65
2023/12/22 12:35:57;;;;;;;8.07;1.53;;;6.00;99.90;;;;;;5006107;28;20212;-65
2023/12/22 12:38:37;;;;;;;8.23;1.27;;;5.90;99.90;;;;;;5011866;28;20757;-65
2023/12/22 12:41:06;;;;;;;7.50;1.70;;;5.90;99.90;;;;;;5002977;28;20205;-65
2023/12/22 12:43:33;;;;;;;9.00;1.57;;;5.90;99.90;;;;;;5004436;28;20703;-65
2023/12/22 12:46:05;;;;;;;4.73;1.23;;;6.00;99.90;;;;;;5011676;28;20466;-65
2023/12/22 12:48:32;;;;;;;12.60;1.13;;;5.90;99.90;;;;;;4982093;28;20868;-65
2023/12/22 12:51:04;;;;;;;9.03;1.20;;;6.00;99.90;;;;;;5011443;28;20202;-65
2023/12/22 12:53:32;;;;;;;6.10;1.57;;;6.00;99.90;;;;;;5016697;28;20500;-65
2023/12/22 12:55:59;;;;;;;9.40;1.50;;;5.90;99.90;;;;;;5015331;28;20213;-66
2023/12/22 12:58:29;;;;;;;6.60;1.40;;;5.90;99.90;;;;;;5005024;28;20924;-65
2023/12/22 13:01:06;;;;;;;3.97;1.23;;;5.90;99.90;;;;;;5013548;28;20212;-65
2023/12/22 13:03:32;;;;;;;7.13;1.43;;;6.00;99.90;;;;;;4976925;28;20205;-65